Wednesday, July 30, 2014
21:23 UTC
  |  Log In   |  Register Free
Airport Search:

Akron-Canton Regional Airport
(KCAK)

Akron-Canton Regional Airport Diagram
No Airport Diagram Available

Airport information sponsored by:
Ultimate Air Center at Akron-Canton Regional (KCAK), Akron, OH
FAA data valid effective July 24, 2014 until September 18, 2014 (unless otherwise noted).

 
 
 
 
 
 
 
 
 
 
 
 
 
 

Current Aviation Weather for Akron-Canton Regional Airport (KCAK)

The most recent METAR observation for KCAK was updated at: 1830 UTC
METAR Summary (Translated METAR)
KCAK
281830Z 33012G21KT 10SM SCT021 OVC036 20/13 A2986 RMK AO2 RAE08 P0000 $
KAKR
(7.4 nm NW from KCAK)
281754Z AUTO 32010G20KT 10SM FEW020 FEW025 OVC031 18/14 A2985 RMK AO2 RAB04E36 SLP105 P0000 60007 T01830139 10206 20172 51024
TAF Summary (Translated TAF)
KCAK
301738Z 3018/3118 26008KT P6SM BKN035 BKN070 FM302200 27006KT P6SM VCSH BKN050 FM310200 25004KT P6SM BKN070 FM310600 25004KT P6SM SKC FM311600 25008KT P6SM SCT040
  Airport Weather Conditions for KCAK

 Current Weather at CAK
72° F
Mostly Cloudy
Southwest winds at 10.4 mph
CAK NOAA Radar

Pressure: 30.01 in
Humidity: 55%
Wind: Southwest at 10.4 MPH (9 KT)
Dew Point: 55.0°F
Visibility: 10.00 mi


Airport Weather Forecast for KCAK

Translated METAR and TAF for KCAK
Translated METAR for KCAK (2117 UTC 30 July 2014)
found at http://aviationweather.gov/adds/metars/
 
METAR text: KCAK 302051Z 22009KT 10SM SCT045 BKN080 BKN220 22/13 A3001 RMK AO2 SLP159 T02220128 56008
Conditions at: KCAK (AKRON , OH, US) observed 2051 UTC 30 July 2014
Temperature: 22.2°C (72°F)
Dewpoint: 12.8°C (55°F) [RH = 55%]
Pressure (altimeter): 30.01 inches Hg (1016.3 mb)
[Sea-level pressure: 1015.9 mb]
Winds: from the SW (220 degrees) at 10 MPH (9 knots; 4.7 m/s)
Visibility: 10 or more miles (16+ km)
Ceiling: 8000 feet AGL
Clouds: scattered clouds at 4500 feet AGL
broken clouds at 8000 feet AGL
broken clouds at 22000 feet AGL
Weather: no significant weather observed at this time
Translated TAF for KCAK
Forecast for: KCAK (AKRON , OH, US)
TAF Text: KCAK 302116Z 3021/3118 26006KT P6SM SCT040 BKN070
Forecast period: 2100 UTC 30 July 2014 to 0600 UTC 31 July 2014
Forecast type: FROM: standard forecast or significant change
Winds: from the W (260 degrees) at 7 MPH (6 knots; 3.1 m/s)
Visibility: 6 or more miles (10+ km)
Ceiling: 7000 feet AGL
Clouds: scattered clouds at 4000 feet AGL
broken clouds at 7000 feet AGL
Weather: no significant weather forecast for this period
TAF Text: TEMPO 3022/3101 3SM -TSRA BKN030CB
Forecast period: 2200 UTC 30 July 2014 to 0100 UTC 31 July 2014
Forecast type: TEMPORARY: The following changes expected for less than half the time period
Visibility: 3 miles (5 km)
Ceiling: 3000 feet AGL
Clouds: broken clouds at 3000 feet AGL
Weather: -TSRA  (light rain associated with thunderstorm(s))
TAF Text: FM310600 25004KT P6SM SKC
Forecast period: 0600 to 1600 UTC 31 July 2014
Forecast type: FROM: standard forecast or significant change
Winds: from the WSW (250 degrees) at 5 MPH (4 knots; 2.1 m/s)
Visibility: 6 or more miles (10+ km)
Clouds: clear skies
Weather: no significant weather forecast for this period
TAF Text: FM311600 25008KT P6SM SCT040
Forecast period: 1600 to 1800 UTC 31 July 2014
Forecast type: FROM: standard forecast or significant change
Winds: from the WSW (250 degrees) at 9 MPH (8 knots; 4.2 m/s)
Visibility: 6 or more miles (10+ km)
Clouds: scattered clouds at 4000 feet AGL
Weather: no significant weather forecast for this period

Find All Airport Services Find A Hotel Find A Rental Car Find A Golf Course Find A Restaurant $100 Hamburger



FBO's on the Field
FBO Company Facility Photos Services Transportation Aviation Fuel Prices: Prices include tax
Catering Weather Repair Courtesy Rental Type 100LL JetA JetA+ MOGAS 8087
 
Ultimate Air Center

Ultimate Air Center logo
Currently rated 4.1 by 4 people
FS:
Last Updated: Jul-28
Login to update fuel prices
SS:
Contact Ultimate Air CenterMore FBO Information
 
McKinley Air, Inc.

Currently rated 4.4 by 4 people
FS:Phillips66
Last Updated: Jul-28
Login to update fuel prices
SS:
Contact McKinley Air, Inc.More FBO Information
 
Add another FBO Facility Photos Catering Weather Repair Courtesy Rental Type 100LL JetA JetA+ MOGAS 8087
Services Transportation Aviation Fuel Prices: Prices include tax


GlobalAir.com Airport Resource Center model-print
model-print
model-print
model-print